ADDS METAR Data INFO
IDs: Format: Raw Decoded Include TAF

Data at: 2133 UTC 15 Dec 2017

KMOD 152053Z 28004KT 3SM HZ CLR 14/04 A3011 RMK AO2 SLP195 T01440044 58033
KMOD 151953Z 00000KT 4SM HZ CLR 13/04 A3015 RMK AO2 SLP210 T01330044
KMOD 151853Z 00000KT 3SM HZ CLR 11/05 A3018 RMK AO2 SLP221 T01110050
KMOD 151753Z 00000KT 4SM HZ CLR 08/04 A3020 RMK AO2 SLP228 T00830044 10089 20006 53006
KMOD 151653Z 12003KT 3SM BR CLR 05/03 A3020 RMK AO2 SLP227 T00500033
KMOD 151553Z 00000KT 2SM BR CLR 01/01 A3018 RMK AO2 SLP223 T00110006
KMOD 151453Z 00000KT 2SM BR CLR 01/00 A3019 RMK AO2 SLP223 T00060000 58003
KMOD 151431Z AUTO 00000KT 2 1/2SM BR CLR 01/01 A3019 RMK AO2 T00110006
KMOD 151424Z AUTO 00000KT 1 3/4SM BR CLR 01/01 A3019 RMK AO2 T00110006
KMOD 151353Z AUTO 00000KT 2SM BR CLR 02/01 A3019 RMK AO2 SLP224 T00170006
KMOD 151344Z AUTO 00000KT 2SM BR CLR 01/01 A3019 RMK AO2 T00110006
KMOD 151322Z AUTO 00000KT 1 1/4SM BR CLR 01/01 A3019 RMK AO2 T00110006
KMOD 151307Z AUTO 00000KT 2 1/2SM BR CLR 02/01 A3019 RMK AO2 T00170011
KMOD 151253Z AUTO 00000KT 1 1/4SM BR CLR 02/01 A3020 RMK AO2 SLP226 T00170011
KMOD 151246Z AUTO 00000KT 1 1/2SM BR CLR 02/01 A3019 RMK AO2 T00170011
KMOD 151233Z AUTO 00000KT 2 1/2SM BR CLR 02/01 A3019 RMK AO2 T00220011
KMOD 151224Z AUTO 00000KT 3SM BR CLR 02/01 A3019 RMK AO2 T00220011
KMOD 151212Z AUTO 00000KT 2 1/2SM BR CLR 02/01 A3020 RMK AO2 T00220011
KMOD 151153Z AUTO 00000KT 3SM BR CLR 03/02 A3020 RMK AO2 SLP225 T00280017 10056 20017 51003
KMOD 151128Z AUTO 00000KT 3SM BR CLR 03/02 A3019 RMK AO2 T00280022
KMOD 151053Z AUTO 00000KT 2SM BR CLR 03/02 A3019 RMK AO2 SLP224 T00280017
KMOD 151033Z AUTO 00000KT 2 1/2SM BR CLR 03/02 A3020 RMK AO2 T00280022
KMOD 150953Z AUTO 00000KT 4SM BR CLR 03/02 A3019 RMK AO2 SLP225 T00280022
KMOD 150853Z AUTO 11004KT 3SM BR CLR 03/02 A3019 RMK AO2 SLP222 T00330022 50004
KMOD 150844Z AUTO 11004KT 3SM BR CLR 03/02 A3019 RMK AO2 T00280022
KMOD 150753Z AUTO 11004KT 2SM BR CLR 03/03 A3019 RMK AO2 SLP225 T00330028 401671006
KMOD 150653Z AUTO 10003KT 2SM BR CLR 04/03 A3019 RMK AO2 SLP225 T00440033
KMOD 150637Z AUTO 00000KT 2 1/2SM BR CLR 05/03 A3019 RMK AO2 T00500033
KMOD 150553Z AUTO 12005KT 3SM BR CLR 05/03 A3017 RMK AO2 SLP218 T00500033 10161 20044 53008
KMOD 150541Z AUTO 12004KT 3SM BR CLR 05/04 A3017 RMK AO2 T00500039
KMOD 150500Z AUTO 12003KT 2 1/2SM BR CLR 06/04 A3017 RMK AO2 T00560039
KMOD 150453Z 00000KT 3SM BR CLR 05/04 A3017 RMK AO2 SLP216 T00500039
KMOD 150353Z 11003KT 3SM BR CLR 07/05 A3015 RMK AO2 SLP212 T00670050
KMOD 150253Z 00000KT 4SM BR CLR 08/06 A3015 RMK AO2 SLP210 T00780056 53013
KMOD 150153Z 00000KT 5SM HZ CLR 09/06 A3013 RMK AO2 SLP205 T00940056
KMOD 150053Z 00000KT 4SM HZ CLR 12/06 A3012 RMK AO2 SLP199 T01220056
KMOD 142353Z 18003KT 4SM HZ CLR 16/05 A3011 RMK AO2 SLP196 T01610050 10167 20083 56002
KMOD 142253Z 21005KT 4SM HZ CLR 17/05 A3011 RMK AO2 SLP197 T01670050
KMOD 142153Z 15004KT 4SM HZ CLR 16/06 A3010 RMK AO2 SLP194 T01610056
KMOD 142053Z 00000KT 4SM HZ CLR 15/05 A3012 RMK AO2 SLP198 T01500050 58017
KMOD 141953Z 14005KT 3SM HZ CLR 14/06 A3014 RMK AO2 SLP206 T01390056
KMOD 141853Z VRB05KT 3SM HZ CLR 11/06 A3016 RMK AO2 SLP213 T01110056
KMOD 141825Z 14004KT 3SM HZ CLR 09/06 A3016 RMK AO2 T00940056
KMOD 141753Z 13005KT 2 1/2SM HZ CLR 08/05 A3017 RMK AO2 SLP215 T00830050 10083 21006 52019
KMOD 141704Z 12004KT 2SM BR CLR 05/04 A3016 RMK AO2 T00500044
KMOD 141653Z 11004KT 1 3/4SM BR CLR 04/03 A3015 RMK AO2 SLP211 T00440033
KMOD 141606Z 11005KT 1SM BR CLR 01/01 A3013 RMK AO2 T00060006
KMOD 141553Z 12005KT 3/4SM BR CLR 01/00 A3012 RMK AO2 SLP202 T00060000
KMOD 141453Z AUTO 11004KT 1 1/2SM BR CLR 00/M01 A3011 RMK AO2 SLP197 T00001006 53010
KMOD 141353Z AUTO 10006KT 1 1/4SM BR CLR 00/00 A3009 RMK AO2 SLP192 T00000000
KMOD 141253Z AUTO 10003KT 1SM BR CLR 01/01 A3008 RMK AO2 SLP186 T00060006
KMOD 141209Z AUTO 00000KT 1 1/4SM BR CLR 02/01 A3008 RMK AO2 T00170006
KMOD 141202Z AUTO 00000KT 2SM BR CLR 01/00 A3008 RMK AO2 T00110000
KMOD 141153Z AUTO 00000KT 1 1/2SM BR CLR 02/01 A3008 RMK AO2 SLP186 T00170011 10044 20011 51002
KMOD 141131Z AUTO 11003KT 1 1/2SM BR CLR 01/01 A3008 RMK AO2 T00110011
KMOD 141123Z AUTO 00000KT 2SM BR CLR 01/01 A3008 RMK AO2 T00110011
KMOD 141103Z AUTO 00000KT 1 1/2SM BR CLR 02/02 A3008 RMK AO2 T00170017
KMOD 141053Z AUTO 13003KT 2SM BR CLR 01/01 A3008 RMK AO2 SLP185 T00110011
KMOD 140953Z AUTO 12005KT 1 1/4SM BR CLR 02/01 A3008 RMK AO2 SLP185 T00170011
KMOD 140944Z AUTO 00000KT 1 3/4SM BR CLR 03/02 A3007 RMK AO2 T00280017